createdAt,value
2023-03-16T00:02:24.161Z,3.5
2023-03-16T00:04:54.115Z,3.5
2023-03-16T00:07:24.263Z,3.6
2023-03-16T00:09:54.158Z,3.5
2023-03-16T00:12:24.198Z,3.6
2023-03-16T00:14:54.231Z,3.6
2023-03-16T00:17:24.243Z,3.6
2023-03-16T00:19:54.264Z,3.6
2023-03-16T00:22:24.299Z,3.6
2023-03-16T00:27:24.323Z,3.7
2023-03-16T00:29:54.363Z,3.6
2023-03-16T00:32:24.408Z,3.7
2023-03-16T00:34:54.407Z,3.7
2023-03-16T00:37:24.507Z,3.7
2023-03-16T00:39:54.445Z,3.7
2023-03-16T00:42:24.473Z,3.7
2023-03-16T00:44:54.491Z,3.8
2023-03-16T00:49:54.537Z,3.8
2023-03-16T00:52:24.569Z,3.7
2023-03-16T00:54:54.581Z,3.7
2023-03-16T00:57:24.680Z,3.8
2023-03-16T00:59:54.647Z,3.8
2023-03-16T01:02:24.890Z,3.8
2023-03-16T01:04:55.011Z,3.7
2023-03-16T01:09:54.752Z,3.7
2023-03-16T01:12:24.768Z,3.7
2023-03-16T01:14:54.782Z,3.7
2023-03-16T01:17:24.839Z,3.7
2023-03-16T01:19:54.836Z,3.7
2023-03-16T01:22:24.850Z,3.7
2023-03-16T01:27:24.888Z,3.7
2023-03-16T01:29:54.925Z,3.8
2023-03-16T01:32:25.024Z,3.7
2023-03-16T01:34:54.973Z,3.7
2023-03-16T01:37:25.016Z,3.6
2023-03-16T01:39:55.029Z,3.6
2023-03-16T01:44:55.051Z,3.6
2023-03-16T01:47:25.093Z,3.6
2023-03-16T01:49:55.109Z,3.7
2023-03-16T01:52:25.120Z,3.6
2023-03-16T01:54:55.168Z,3.6
2023-03-16T01:57:25.177Z,3.6
2023-03-16T01:59:55.190Z,3.6
2023-03-16T02:02:25.241Z,3.6
2023-03-16T02:07:25.324Z,3.6
2023-03-16T02:09:55.301Z,3.6
2023-03-16T02:12:25.316Z,3.5
2023-03-16T02:14:55.380Z,3.5
2023-03-16T02:19:55.414Z,3.6
2023-03-16T02:22:25.399Z,3.6
2023-03-16T02:24:55.457Z,3.6
2023-03-16T02:27:25.452Z,3.6
2023-03-16T02:29:55.505Z,3.6
2023-03-16T02:32:25.591Z,3.7
2023-03-16T02:34:55.557Z,3.7
2023-03-16T02:37:25.572Z,3.8
2023-03-16T02:39:55.590Z,3.8
2023-03-16T02:42:25.620Z,3.8
2023-03-16T02:44:55.621Z,3.8
2023-03-16T02:47:25.651Z,3.8
2023-03-16T02:52:25.721Z,3.8
2023-03-16T02:54:55.795Z,3.8
2023-03-16T02:57:25.752Z,3.8
2023-03-16T02:59:55.776Z,3.9
2023-03-16T03:02:25.800Z,3.8
2023-03-16T03:09:55.877Z,3.8
2023-03-16T03:12:25.900Z,3.9
2023-03-16T03:14:55.898Z,3.9
2023-03-16T03:17:25.940Z,3.9
2023-03-16T03:22:25.986Z,3.9
2023-03-16T03:24:56.003Z,3.9
2023-03-16T03:27:26.067Z,3.9
2023-03-16T03:29:56.061Z,3.9
2023-03-16T03:32:26.121Z,3.9
2023-03-16T03:34:56.110Z,3.9
2023-03-16T03:37:26.119Z,3.9
2023-03-16T03:39:56.164Z,4
2023-03-16T03:42:26.168Z,4
2023-03-16T03:44:56.228Z,3.9
2023-03-16T03:47:26.233Z,3.9
2023-03-16T03:49:56.233Z,3.9
2023-03-16T03:52:26.285Z,3.9
2023-03-16T03:54:56.305Z,3.9
2023-03-16T03:59:56.350Z,3.9
2023-03-16T04:07:26.419Z,4
2023-03-16T04:09:56.457Z,4
2023-03-16T04:12:26.450Z,4
2023-03-16T04:14:56.489Z,4
2023-03-16T04:17:26.515Z,4
2023-03-16T04:19:56.539Z,4
2023-03-16T04:22:26.547Z,4
2023-03-16T04:24:56.570Z,4
2023-03-16T04:27:26.620Z,4
2023-03-16T04:32:26.748Z,3.9
2023-03-16T04:34:56.780Z,3.9
2023-03-16T04:39:56.822Z,3.9
2023-03-16T04:42:26.748Z,3.9
2023-03-16T04:44:56.791Z,3.8
2023-03-16T04:49:56.830Z,3.8
2023-03-16T04:52:26.839Z,3.8
2023-03-16T04:59:56.905Z,3.8
2023-03-16T05:02:26.936Z,3.7
2023-03-16T05:09:56.994Z,3.7
2023-03-16T05:12:27.059Z,3.7
2023-03-16T05:14:57.066Z,3.7
2023-03-16T05:19:57.125Z,3.6
2023-03-16T05:22:27.135Z,3.6
2023-03-16T05:32:27.246Z,3.6
2023-03-16T05:34:57.240Z,3.6
2023-03-16T05:37:27.330Z,3.7
2023-03-16T05:39:57.301Z,3.8
2023-03-16T05:42:27.330Z,3.8
2023-03-16T05:44:57.333Z,3.8
2023-03-16T05:49:57.404Z,3.9
2023-03-16T05:52:27.397Z,3.9
2023-03-16T05:54:57.476Z,3.9
2023-03-16T05:57:27.453Z,3.9
2023-03-16T05:59:57.553Z,3.9
2023-03-16T06:04:57.512Z,4
2023-03-16T06:09:57.576Z,4
2023-03-16T06:12:27.619Z,4.1
2023-03-16T06:14:57.608Z,4.1
2023-03-16T06:17:27.684Z,4.1
2023-03-16T06:22:27.688Z,4.19
2023-03-16T06:24:57.723Z,4.19
2023-03-16T06:27:27.741Z,4.19
2023-03-16T06:29:57.779Z,4.3
2023-03-16T06:34:57.907Z,4.3
2023-03-16T06:42:27.885Z,4.4
2023-03-16T06:44:57.904Z,4.3
2023-03-16T06:47:27.947Z,4.3
2023-03-16T06:49:57.948Z,4.4
2023-03-16T06:52:27.974Z,4.4
2023-03-16T06:57:28.025Z,4.5
2023-03-16T06:59:58.057Z,4.5
2023-03-16T07:09:58.152Z,4.6
2023-03-16T07:12:28.161Z,4.69
2023-03-16T07:14:58.196Z,4.8
2023-03-16T07:17:28.195Z,4.8
2023-03-16T07:24:58.290Z,4.8
2023-03-16T07:32:28.396Z,5
2023-03-16T07:34:59.284Z,5.1
2023-03-16T07:37:28.391Z,5.3
2023-03-16T07:42:28.448Z,5.4
2023-03-16T07:44:58.472Z,5.4
2023-03-16T07:47:28.503Z,5.5
2023-03-16T07:57:28.584Z,5.4
2023-03-16T07:59:58.594Z,5.5
2023-03-16T08:02:28.668Z,5.4
2023-03-16T08:04:58.640Z,5.4
2023-03-16T08:07:28.663Z,5.4
2023-03-16T08:09:58.715Z,5.3
2023-03-16T08:12:28.752Z,5.3
2023-03-16T08:17:28.779Z,5.3
2023-03-16T08:19:58.798Z,5.4
2023-03-16T08:22:28.842Z,5.4
2023-03-16T08:24:58.852Z,5.4
2023-03-16T08:27:28.863Z,5.5
2023-03-16T08:34:58.925Z,5.6
2023-03-16T08:37:28.949Z,5.6
2023-03-16T08:39:58.981Z,5.7
2023-03-16T08:42:29.005Z,5.7
2023-03-16T08:44:59.009Z,5.8
2023-03-16T08:49:59.084Z,5.9
2023-03-16T08:52:29.120Z,6
2023-03-16T08:55:03.507Z,6.2
2023-03-16T08:59:59.166Z,6.4
2023-03-16T09:02:29.223Z,6.4
2023-03-16T09:09:59.262Z,6.5
2023-03-16T09:14:59.312Z,6.4
2023-03-16T09:20:11.574Z,6.5
2023-03-16T09:24:59.397Z,6.6
2023-03-16T09:27:29.427Z,6.9
2023-03-16T09:32:29.507Z,6.8
2023-03-16T09:40:06.568Z,7
2023-03-16T09:42:29.568Z,7
2023-03-16T09:47:29.645Z,6.9
2023-03-16T09:49:59.637Z,6.9
2023-03-16T09:52:29.665Z,7
2023-03-16T09:54:59.706Z,7.1
2023-03-16T09:59:59.744Z,7.2
2023-03-16T10:02:29.747Z,7.3
2023-03-16T10:09:59.841Z,7.4
2023-03-16T10:12:29.855Z,7.3
2023-03-16T10:14:59.899Z,7.3
2023-03-16T10:19:59.914Z,7.2
2023-03-16T10:22:29.969Z,7.3
2023-03-16T10:27:30.006Z,7.3
2023-03-16T10:30:00.116Z,7.4
2023-03-16T10:32:30.117Z,7.5
2023-03-16T10:35:00.121Z,7.8
2023-03-16T10:37:30.147Z,8
2023-03-16T10:45:01.963Z,8.1
2023-03-16T10:47:30.207Z,8.2
2023-03-16T10:50:00.231Z,8.3
2023-03-16T10:52:30.350Z,8.6
2023-03-16T10:55:00.262Z,8.8
2023-03-16T11:00:00.333Z,9.1
2023-03-16T11:17:30.512Z,10.2
2023-03-16T11:25:00.547Z,10.7
2023-03-16T11:27:30.564Z,10.8
2023-03-16T11:30:00.647Z,10.8
2023-03-16T11:32:30.647Z,10.7
2023-03-16T11:37:30.662Z,10.7
2023-03-16T11:40:00.713Z,10.9
2023-03-16T11:47:30.772Z,10.9
2023-03-16T11:50:00.793Z,10.7
2023-03-16T11:52:30.804Z,10.7
2023-03-16T12:00:01.887Z,10.6
2023-03-16T12:02:31.027Z,10.6
2023-03-16T12:05:00.919Z,10.6
2023-03-16T12:07:30.942Z,10.7
2023-03-16T12:10:00.974Z,10.6
2023-03-16T12:12:30.987Z,10.7
2023-03-16T12:20:01.046Z,10.8
2023-03-16T12:22:31.093Z,10.9
2023-03-16T12:25:01.107Z,11.1
2023-03-16T12:27:31.120Z,11.2
2023-03-16T12:30:01.147Z,11.2
2023-03-16T12:32:31.188Z,11.4
2023-03-16T12:42:31.281Z,11.5
2023-03-16T12:45:01.278Z,11.6
2023-03-16T13:02:31.452Z,11.6
2023-03-16T13:05:01.486Z,11.7
2023-03-16T13:07:31.480Z,11.8
2023-03-16T13:10:01.581Z,11.9
2023-03-16T13:15:01.595Z,11.9
2023-03-16T13:17:31.654Z,11.9
2023-03-16T13:20:01.638Z,12
2023-03-16T13:22:31.618Z,12.1
2023-03-16T13:27:31.677Z,12.5
2023-03-16T13:30:01.708Z,12.6
2023-03-16T13:32:31.751Z,12.6
2023-03-16T13:35:01.771Z,12.7
2023-03-16T13:45:01.859Z,12.8
2023-03-16T13:50:01.897Z,13
2023-03-16T13:52:31.912Z,13.2
2023-03-16T13:55:01.969Z,13.2
2023-03-16T14:00:01.990Z,13.1
2023-03-16T14:02:32.023Z,13.2
2023-03-16T14:10:02.094Z,13.2
2023-03-16T14:12:32.086Z,13.3
2023-03-16T14:15:02.129Z,13.6
2023-03-16T14:22:32.202Z,13.6
2023-03-16T14:30:02.301Z,13.9
2023-03-16T14:42:32.404Z,15.8
2023-03-16T14:50:02.468Z,17.1
2023-03-16T14:55:03.619Z,18
2023-03-16T15:00:02.575Z,18.5
2023-03-16T15:07:32.622Z,19.9
2023-03-16T15:12:32.645Z,20.2
2023-03-16T15:15:02.695Z,20
2023-03-16T15:20:02.729Z,20.29
2023-03-16T15:22:32.750Z,20.5
2023-03-16T15:25:02.822Z,20.7
2023-03-16T15:30:02.859Z,17.7
2023-03-16T15:35:02.879Z,19.29
2023-03-16T15:42:33.008Z,21.5
2023-03-16T15:45:03.026Z,22
2023-03-16T15:47:32.999Z,20.9
2023-03-16T15:50:03.067Z,20.6
2023-03-16T15:52:33.049Z,20.1
2023-03-16T15:55:03.072Z,19.79
2023-03-16T15:57:33.089Z,21.2
2023-03-16T16:00:03.105Z,19.5
2023-03-16T16:02:33.126Z,17.9
2023-03-16T16:07:33.174Z,16.5
2023-03-16T16:10:03.208Z,15.8
2023-03-16T16:12:33.257Z,15.6
2023-03-16T16:15:03.245Z,15.2
2023-03-16T16:17:50.726Z,14.8
2023-03-16T16:20:03.338Z,14.6
2023-03-16T16:22:33.319Z,14.5
2023-03-16T16:27:33.374Z,16
2023-03-16T16:30:03.457Z,17.7
2023-03-16T16:32:33.432Z,19
2023-03-16T16:35:04.563Z,19.4
2023-03-16T16:37:33.460Z,19.2
2023-03-16T16:40:03.525Z,18.1
2023-03-16T16:42:33.496Z,17
2023-03-16T16:45:03.527Z,16
2023-03-16T16:47:33.550Z,15.5
2023-03-16T16:50:03.630Z,15
2023-03-16T16:52:33.601Z,14.7
2023-03-16T16:55:03.631Z,14.4
2023-03-16T16:57:33.655Z,14.3
2023-03-16T17:00:03.708Z,14.3
2023-03-16T17:02:33.686Z,14.1
2023-03-16T17:05:03.708Z,13.9
2023-03-16T17:10:03.771Z,13.4
2023-03-16T17:12:33.814Z,13.3
2023-03-16T17:15:03.806Z,13
2023-03-16T17:17:33.843Z,12.9
2023-03-16T17:20:03.894Z,12.8
2023-03-16T17:22:33.908Z,12.5
2023-03-16T17:25:03.926Z,12.3
2023-03-16T17:27:33.925Z,12.2
2023-03-16T17:30:03.981Z,12.3
2023-03-16T17:32:35.543Z,12.2
2023-03-16T17:37:34.042Z,12.1
2023-03-16T17:40:04.062Z,12
2023-03-16T17:42:34.089Z,11.8
2023-03-16T17:45:04.144Z,11.7
2023-03-16T17:50:04.152Z,11.4
2023-03-16T17:55:04.199Z,11.2
2023-03-16T17:57:34.223Z,11.1
2023-03-16T18:00:04.350Z,11
2023-03-16T18:02:34.273Z,10.9
2023-03-16T18:05:04.317Z,10.8
2023-03-16T18:07:34.338Z,10.8
2023-03-16T18:12:34.393Z,10.6
2023-03-16T18:15:04.415Z,10.5
2023-03-16T18:17:34.421Z,10.5
2023-03-16T18:20:04.468Z,10.5
2023-03-16T18:22:34.457Z,10.4
2023-03-16T18:25:04.510Z,10.3
2023-03-16T18:27:34.510Z,10.3
2023-03-16T18:30:04.539Z,10.2
2023-03-16T18:32:34.574Z,10.2
2023-03-16T18:42:34.705Z,10
2023-03-16T18:45:04.677Z,9.89
2023-03-16T18:47:34.843Z,9.89
2023-03-16T18:50:04.725Z,9.89
2023-03-16T18:52:34.753Z,9.8
2023-03-16T18:55:04.780Z,9.8
2023-03-16T18:57:34.829Z,9.8
2023-03-16T19:00:04.817Z,9.7
2023-03-16T19:02:34.869Z,9.7
2023-03-16T19:07:34.907Z,9.6
2023-03-16T19:10:04.926Z,9.5
2023-03-16T19:15:04.993Z,9.5
2023-03-16T19:17:35.119Z,9.39
2023-03-16T19:20:05.012Z,9.5
2023-03-16T19:22:35.072Z,9.5
2023-03-16T19:25:05.047Z,9.39
2023-03-16T19:27:35.081Z,9.39
2023-03-16T19:30:05.106Z,9.39
2023-03-16T19:32:35.165Z,9.39
2023-03-16T19:37:35.161Z,9.39
2023-03-16T19:40:05.230Z,9.39
2023-03-16T19:42:35.200Z,9.3
2023-03-16T19:45:05.252Z,9.3
2023-03-16T19:47:35.254Z,9.3
2023-03-16T19:50:05.302Z,9.3
2023-03-16T19:55:05.336Z,9.1
2023-03-16T20:00:05.370Z,9.1
2023-03-16T20:02:35.398Z,9.1
2023-03-16T20:07:35.447Z,9
2023-03-16T20:10:05.544Z,9
2023-03-16T20:12:35.491Z,8.89
2023-03-16T20:15:05.596Z,8.89
2023-03-16T20:17:35.539Z,8.89
2023-03-16T20:22:35.593Z,8.8
2023-03-16T20:25:05.626Z,8.8
2023-03-16T20:27:35.634Z,8.8
2023-03-16T20:32:35.752Z,8.8
2023-03-16T20:35:05.720Z,8.7
2023-03-16T20:40:05.744Z,8.7
2023-03-16T20:45:05.814Z,8.7
2023-03-16T20:50:05.824Z,8.8
2023-03-16T20:52:35.862Z,8.8
2023-03-16T20:55:05.888Z,8.8
2023-03-16T21:00:05.929Z,8.8
2023-03-16T21:02:36.001Z,8.8
2023-03-16T21:07:36.034Z,8.8
2023-03-16T21:12:36.048Z,8.7
2023-03-16T21:17:36.099Z,8.6
2023-03-16T21:20:06.137Z,8.6
2023-03-16T21:22:36.141Z,8.6
2023-03-16T21:27:36.189Z,8.6
2023-03-16T21:32:36.290Z,8.6
2023-03-16T21:35:06.272Z,8.5
2023-03-16T21:37:36.306Z,8.5
2023-03-16T21:40:06.359Z,8.5
2023-03-16T21:42:36.326Z,8.39
2023-03-16T21:45:06.385Z,8.39
2023-03-16T21:50:06.421Z,8.3
2023-03-16T21:52:36.463Z,8.3
2023-03-16T21:57:36.486Z,8.2
2023-03-16T22:00:06.507Z,8.2
2023-03-16T22:02:36.708Z,8.2
2023-03-16T22:05:06.555Z,8.2
2023-03-16T22:07:36.587Z,8.1
2023-03-16T22:12:36.625Z,8.1
2023-03-16T22:15:06.654Z,8.1
2023-03-16T22:17:36.673Z,7.9
2023-03-16T22:20:06.687Z,7.9
2023-03-16T22:25:06.773Z,8
2023-03-16T22:27:36.783Z,7.9
2023-03-16T22:30:06.787Z,7.9
2023-03-16T22:37:36.883Z,7.9
2023-03-16T22:40:06.886Z,7.9
2023-03-16T22:42:36.930Z,7.9
2023-03-16T22:50:06.995Z,7.9
2023-03-16T22:52:37.003Z,7.9
2023-03-16T22:57:37.052Z,7.8
2023-03-16T23:10:07.167Z,7.9
2023-03-16T23:12:37.208Z,7.9
2023-03-16T23:15:07.218Z,7.9
2023-03-16T23:17:37.235Z,7.9
2023-03-16T23:20:07.294Z,7.9
2023-03-16T23:22:37.279Z,7.9
2023-03-16T23:25:07.336Z,7.9
2023-03-16T23:27:37.349Z,7.9
2023-03-16T23:37:37.448Z,7.9
2023-03-16T23:40:07.464Z,7.9
2023-03-16T23:42:37.470Z,7.9
2023-03-16T23:45:07.502Z,7.9
2023-03-16T23:47:37.529Z,7.9
2023-03-16T23:52:37.565Z,7.9
2023-03-16T23:55:07.593Z,7.9
